Time;durP1;ratioP1;P1;durP2;ratioP2;P2;SDS_P1;SDS_P2;PMS_P1;PMS_P2;Temp;Humidity;BMP_temperature;BMP_pressure;BME280_temperature;BME280_humidity;BME280_pressure;Samples;Min_cycle;Max_cycle;Signal;HPM_P1;HPM_P2
2023/06/09 00:00:51;;;;;;;8.98;8.07;;;19.30;99.90;;;;;;6252030;22;20012;-92
2023/06/09 00:03:21;;;;;;;12.18;9.00;;;19.30;99.90;;;;;;6226349;22;20073;-92
2023/06/09 00:05:49;;;;;;;12.25;9.20;;;19.30;99.90;;;;;;6251721;22;20012;-93
2023/06/09 00:08:15;;;;;;;14.57;8.63;;;19.40;99.90;;;;;;6226296;22;20034;-90
2023/06/09 00:10:42;;;;;;;11.68;8.50;;;19.50;99.90;;;;;;6226104;22;20460;-95
2023/06/09 00:13:09;;;;;;;14.20;9.27;;;19.50;99.90;;;;;;6226392;22;20003;-92
2023/06/09 00:15:36;;;;;;;13.30;8.27;;;19.50;99.90;;;;;;6251256;22;20018;-92
2023/06/09 00:18:03;;;;;;;11.00;8.55;;;19.60;99.90;;;;;;6225807;22;20011;-92
2023/06/09 00:20:33;;;;;;;14.10;8.93;;;19.60;99.90;;;;;;6226246;22;20091;-92
2023/06/09 00:23:01;;;;;;;14.93;8.85;;;19.60;99.90;;;;;;6226415;22;20007;-92
2023/06/09 00:25:27;;;;;;;12.85;8.35;;;19.50;99.90;;;;;;6226232;22;20045;-91
2023/06/09 00:27:54;;;;;;;16.15;8.65;;;19.50;99.90;;;;;;6226387;22;20004;-93
2023/06/09 00:30:22;;;;;;;13.82;8.80;;;19.60;99.90;;;;;;6251580;22;20010;-93
2023/06/09 00:32:49;;;;;;;13.63;8.52;;;19.50;99.90;;;;;;6220767;23;20031;-92
2023/06/09 00:35:15;;;;;;;15.80;8.98;;;19.50;99.90;;;;;;6220815;23;20019;-92
2023/06/09 00:37:42;;;;;;;15.00;9.27;;;19.50;99.90;;;;;;6195987;23;20338;-92
2023/06/09 00:40:14;;;;;;;14.75;9.65;;;19.50;99.90;;;;;;6220803;23;20115;-91
2023/06/09 00:42:40;;;;;;;16.98;9.88;;;19.50;99.90;;;;;;6220652;23;20036;-93
2023/06/09 00:45:07;;;;;;;14.23;9.35;;;19.50;99.90;;;;;;6220698;23;20072;-91
2023/06/09 00:47:35;;;;;;;15.20;10.60;;;19.50;99.90;;;;;;6220983;23;20437;-93
2023/06/09 00:50:01;;;;;;;18.30;10.30;;;19.60;99.90;;;;;;6195892;23;20153;-91
2023/06/09 00:52:28;;;;;;;22.38;10.77;;;19.60;99.90;;;;;;6221640;23;20011;-93
2023/06/09 00:54:54;;;;;;;18.08;11.07;;;19.60;99.90;;;;;;6221641;23;20014;-92
2023/06/09 00:57:22;;;;;;;19.80;10.60;;;19.70;99.90;;;;;;6204093;23;20011;-92
2023/06/09 00:59:49;;;;;;;20.00;11.13;;;19.70;99.90;;;;;;6244819;23;20050;-93
2023/06/09 01:02:19;;;;;;;21.52;10.90;;;19.70;99.90;;;;;;6204335;23;20001;-93
2023/06/09 01:04:52;;;;;;;17.83;10.25;;;19.70;99.90;;;;;;6195672;23;20008;-94
2023/06/09 01:07:42;;;;;;;19.58;10.98;;;19.60;99.90;;;;;;6220437;23;20008;-92
2023/06/09 01:10:22;;;;;;;20.75;10.32;;;19.60;99.90;;;;;;6220815;23;20016;-91
2023/06/09 01:13:32;;;;;;;18.02;10.75;;;19.50;99.90;;;;;;6195682;23;20036;-92
2023/06/09 01:16:08;;;;;;;17.65;10.45;;;19.50;99.90;;;;;;6195609;23;20098;-91
2023/06/09 01:18:36;;;;;;;20.63;10.25;;;19.30;99.90;;;;;;6195764;23;20020;-93
2023/06/09 01:21:35;;;;;;;15.82;10.18;;;19.30;99.90;;;;;;6220628;23;20440;-92
2023/06/09 01:24:19;;;;;;;17.38;9.45;;;19.20;99.90;;;;;;6220367;23;20054;-92
2023/06/09 01:26:50;;;;;;;17.50;10.13;;;19.10;99.90;;;;;;6195577;23;20094;-93
2023/06/09 01:29:20;;;;;;;17.75;9.82;;;19.00;99.90;;;;;;6220938;23;20009;-93
2023/06/09 01:31:48;;;;;;;15.70;10.23;;;19.10;99.90;;;;;;6220583;23;20005;-91
2023/06/09 01:34:16;;;;;;;21.02;10.27;;;19.10;99.90;;;;;;6225725;22;20023;-92
2023/06/09 01:36:44;;;;;;;16.98;9.63;;;19.10;99.90;;;;;;6225313;22;20031;-92
2023/06/09 01:39:12;;;;;;;21.55;10.30;;;19.10;99.90;;;;;;6225790;22;20094;-92
2023/06/09 01:41:38;;;;;;;22.08;12.27;;;19.20;99.90;;;;;;6225711;22;20007;-91
2023/06/09 01:44:05;;;;;;;27.17;14.35;;;19.30;99.90;;;;;;6225677;22;20087;-93
2023/06/09 01:46:31;;;;;;;28.88;14.10;;;19.30;99.90;;;;;;6225763;22;20004;-92
2023/06/09 01:49:20;;;;;;;27.88;13.98;;;19.40;99.90;;;;;;6250886;22;20008;-92
2023/06/09 01:51:50;;;;;;;21.52;12.07;;;19.40;99.90;;;;;;6225645;22;20008;-92
2023/06/09 01:54:33;;;;;;;22.70;12.13;;;19.40;99.90;;;;;;6225363;22;20011;-92
2023/06/09 01:57:10;;;;;;;19.70;11.20;;;19.30;99.90;;;;;;6225437;22;20007;-92
2023/06/09 02:00:00;;;;;;;18.40;11.30;;;19.20;99.90;;;;;;6225273;22;20015;-92
2023/06/09 02:02:31;;;;;;;25.63;13.48;;;19.10;99.90;;;;;;6225618;22;20010;-92
2023/06/09 02:05:02;;;;;;;20.10;11.63;;;19.10;99.90;;;;;;6225740;22;20066;-93
2023/06/09 02:07:30;;;;;;;18.85;11.38;;;19.00;99.90;;;;;;6225618;22;20011;-94
2023/06/09 02:09:57;;;;;;;24.00;11.63;;;19.00;99.90;;;;;;6225564;22;20003;-90
2023/06/09 02:12:35;;;;;;;17.80;10.70;;;19.00;99.90;;;;;;6225744;22;20084;-92
2023/06/09 02:15:05;;;;;;;19.63;11.05;;;19.00;99.90;;;;;;6218872;22;20152;-92
2023/06/09 02:17:35;;;;;;;22.13;11.35;;;19.00;99.90;;;;;;6225696;22;20137;-93
2023/06/09 02:20:05;;;;;;;16.90;10.05;;;18.90;99.90;;;;;;6225792;22;20004;-92
2023/06/09 02:22:32;;;;;;;16.25;9.95;;;18.80;99.90;;;;;;6225548;22;20506;-92
2023/06/09 02:24:58;;;;;;;15.88;10.02;;;18.80;99.90;;;;;;6225808;22;20014;-92
2023/06/09 02:27:25;;;;;;;18.48;10.63;;;18.70;99.90;;;;;;6250636;22;20010;-93
2023/06/09 02:29:52;;;;;;;17.95;11.18;;;18.60;99.90;;;;;;6225602;22;20007;-91
2023/06/09 02:32:19;;;;;;;18.55;11.07;;;18.60;99.90;;;;;;6245262;23;20346;-93
2023/06/09 02:34:46;;;;;;;21.17;11.77;;;18.60;99.90;;;;;;6220540;23;20015;-92
2023/06/09 02:37:13;;;;;;;24.08;12.43;;;18.60;99.90;;;;;;6220245;23;20027;-91
2023/06/09 02:39:43;;;;;;;20.13;11.85;;;18.60;99.90;;;;;;6220809;23;20016;-92
2023/06/09 02:42:09;;;;;;;19.38;11.10;;;18.70;99.90;;;;;;6221633;23;20008;-91
2023/06/09 02:44:38;;;;;;;16.98;10.27;;;18.70;99.90;;;;;;6222476;23;20004;-91
2023/06/09 02:47:08;;;;;;;18.95;12.18;;;18.50;99.90;;;;;;6230753;22;19992;-93
2023/06/09 02:49:34;;;;;;;18.55;10.30;;;18.40;99.90;;;;;;6244811;22;20012;-93
2023/06/09 02:52:02;;;;;;;16.80;10.82;;;18.30;99.90;;;;;;6227089;23;20000;-93
2023/06/09 02:54:33;;;;;;;17.83;11.43;;;18.20;99.90;;;;;;6222938;23;20043;-91
2023/06/09 02:57:00;;;;;;;20.02;11.45;;;18.10;99.90;;;;;;6221921;23;20004;-94
2023/06/09 02:59:26;;;;;;;17.20;11.40;;;18.10;99.90;;;;;;6221994;23;20052;-92
2023/06/09 03:01:54;;;;;;;18.77;11.18;;;18.20;99.90;;;;;;6222230;23;20008;-91
2023/06/09 03:04:21;;;;;;;19.55;10.82;;;18.30;99.90;;;;;;6221955;23;20426;-92
2023/06/09 03:06:50;;;;;;;16.98;11.38;;;18.40;99.90;;;;;;6221721;23;20015;-94
2023/06/09 03:09:18;;;;;;;18.80;10.18;;;18.40;99.90;;;;;;6222158;23;20000;-93
2023/06/09 03:11:49;;;;;;;16.98;10.68;;;18.50;99.90;;;;;;6222458;23;20016;-94
2023/06/09 03:14:16;;;;;;;17.73;10.15;;;18.60;99.90;;;;;;6221980;23;20008;-92
2023/06/09 03:16:43;;;;;;;17.30;9.90;;;18.60;99.90;;;;;;6221926;23;20337;-94
2023/06/09 03:19:10;;;;;;;19.10;10.20;;;18.60;99.90;;;;;;6222441;23;20397;-92
2023/06/09 03:21:37;;;;;;;22.52;9.98;;;18.70;99.90;;;;;;6221899;23;20083;-92
2023/06/09 03:24:06;;;;;;;13.07;9.57;;;18.70;99.90;;;;;;6221958;23;20015;-91
2023/06/09 03:26:34;;;;;;;16.50;9.75;;;18.80;99.90;;;;;;6221600;23;20004;-93
2023/06/09 03:29:01;;;;;;;16.65;9.80;;;18.80;99.90;;;;;;6221653;23;20012;-91
2023/06/09 03:31:28;;;;;;;18.58;10.10;;;18.80;99.90;;;;;;6221817;23;20007;-93
2023/06/09 03:33:56;;;;;;;20.35;11.68;;;18.80;99.90;;;;;;6226277;22;20020;-92
2023/06/09 03:36:24;;;;;;;18.33;11.65;;;18.50;99.90;;;;;;6226323;22;20034;-92
2023/06/09 03:38:54;;;;;;;20.92;12.65;;;18.30;99.90;;;;;;6227128;22;20046;-90
2023/06/09 03:41:21;;;;;;;21.25;11.93;;;18.20;99.90;;;;;;6227185;22;20042;-92
2023/06/09 03:43:48;;;;;;;22.30;12.35;;;18.30;99.90;;;;;;6226464;22;20011;-92
2023/06/09 03:46:15;;;;;;;19.02;11.50;;;18.30;99.90;;;;;;6226714;22;20134;-90
2023/06/09 03:48:43;;;;;;;17.10;9.85;;;18.40;99.90;;;;;;6226781;22;20011;-92
2023/06/09 03:51:09;;;;;;;22.35;10.85;;;18.50;99.90;;;;;;6252816;22;20086;-91
2023/06/09 03:53:36;;;;;;;14.65;10.10;;;18.40;99.90;;;;;;6226233;22;20015;-91
2023/06/09 03:56:03;;;;;;;16.20;9.85;;;18.50;99.90;;;;;;6226220;22;20000;-91
2023/06/09 03:58:30;;;;;;;29.65;11.00;;;18.50;99.90;;;;;;6251874;22;20019;-93
2023/06/09 04:00:57;;;;;;;16.48;10.23;;;18.50;99.90;;;;;;6227077;22;20023;-94
2023/06/09 04:03:27;;;;;;;17.65;10.07;;;18.70;99.90;;;;;;6251581;22;20023;-94
2023/06/09 04:05:53;;;;;;;21.33;9.80;;;18.90;99.90;;;;;;6252446;22;20011;-92
2023/06/09 04:08:21;;;;;;;15.35;9.48;;;19.00;99.90;;;;;;6252190;22;20023;-93
2023/06/09 04:10:47;;;;;;;19.05;10.68;;;19.10;99.90;;;;;;6252240;22;20078;-92
2023/06/09 04:13:14;;;;;;;14.60;10.02;;;19.30;99.90;;;;;;6277269;22;20011;-92
2023/06/09 04:15:41;;;;;;;16.60;10.30;;;19.40;99.90;;;;;;6277521;22;20007;-93
2023/06/09 04:18:08;;;;;;;15.73;9.63;;;19.50;99.90;;;;;;6252024;22;20022;-92
2023/06/09 04:20:35;;;;;;;14.13;9.48;;;19.50;99.90;;;;;;6251936;22;20004;-94
2023/06/09 04:23:05;;;;;;;16.45;9.32;;;19.70;99.90;;;;;;6252125;22;20011;-92
2023/06/09 04:25:35;;;;;;;14.02;10.05;;;19.80;99.90;;;;;;6252913;22;20053;-94
2023/06/09 04:28:10;;;;;;;23.65;11.02;;;20.00;99.90;;;;;;6275828;22;20012;-91
2023/06/09 04:30:38;;;;;;;19.58;11.40;;;20.30;99.90;;;;;;6231437;22;20113;-92
2023/06/09 04:33:09;;;;;;;18.67;11.73;;;20.60;99.90;;;;;;6278463;22;20046;-92
2023/06/09 04:35:37;;;;;;;17.27;10.20;;;20.80;99.90;;;;;;6286375;22;20007;-90
2023/06/09 04:38:07;;;;;;;11.90;8.50;;;21.30;99.90;;;;;;6304781;22;20064;-92
2023/06/09 04:40:37;;;;;;;17.77;9.98;;;22.10;99.90;;;;;;6266044;22;20012;-91
2023/06/09 04:43:07;;;;;;;12.57;9.98;;;23.30;99.90;;;;;;6252130;22;20087;-92
2023/06/09 04:45:35;;;;;;;16.67;13.48;;;24.90;99.90;;;;;;6251084;22;20066;-92
2023/06/09 04:48:15;;;;;;;19.13;16.35;;;26.50;99.90;;;;;;6274473;22;20418;-93
2023/06/09 04:50:44;;;;;;;20.52;18.80;;;27.30;99.90;;;;;;6277162;22;20004;-93
2023/06/09 04:53:18;;;;;;;22.88;20.83;;;28.10;99.90;;;;;;6276577;22;20137;-93
2023/06/09 04:55:52;;;;;;;24.40;22.20;;;28.20;99.90;;;;;;6275476;22;20090;-94
2023/06/09 04:58:19;;;;;;;24.10;21.90;;;28.80;99.90;;;;;;6276822;22;20015;-94
2023/06/09 05:00:48;;;;;;;23.42;21.70;;;29.10;99.90;;;;;;6278825;22;20004;-94
2023/06/09 05:03:17;;;;;;;23.65;21.92;;;29.50;99.90;;;;;;6271507;22;20016;-91
2023/06/09 05:05:46;;;;;;;23.90;22.00;;;30.10;99.90;;;;;;6222309;23;20508;-93
2023/06/09 05:08:14;;;;;;;23.38;21.80;;;30.60;99.90;;;;;;6272898;22;20004;-90
2023/06/09 05:10:41;;;;;;;23.23;21.30;;;31.00;99.90;;;;;;6272301;22;20008;-93
2023/06/09 05:13:08;;;;;;;23.73;22.15;;;31.10;99.90;;;;;;6281209;22;20007;-91
2023/06/09 05:15:36;;;;;;;23.83;22.13;;;31.20;99.90;;;;;;6280301;22;20028;-92
2023/06/09 05:18:07;;;;;;;22.67;20.98;;;31.20;99.90;;;;;;6285329;22;20388;-91
2023/06/09 05:20:35;;;;;;;22.77;21.00;;;31.80;99.90;;;;;;6278568;22;20333;-92
2023/06/09 05:23:02;;;;;;;23.17;21.50;;;32.10;99.90;;;;;;6275776;22;20004;-93
2023/06/09 05:25:30;;;;;;;23.15;21.23;;;31.30;99.90;;;;;;6271630;22;20091;-92
2023/06/09 05:27:56;;;;;;;22.02;20.50;;;31.80;99.90;;;;;;6274280;22;20004;-93
2023/06/09 05:30:23;;;;;;;22.95;21.20;;;31.30;99.90;;;;;;6272953;22;20457;-94
2023/06/09 05:32:50;;;;;;;23.27;21.52;;;31.10;99.90;;;;;;6272682;22;20434;-93
2023/06/09 05:35:18;;;;;;;23.90;21.88;;;31.30;99.90;;;;;;6271240;22;20087;-90
2023/06/09 05:37:52;;;;;;;22.45;20.95;;;31.30;99.90;;;;;;6271377;22;20430;-92
2023/06/09 05:40:22;;;;;;;23.50;21.50;;;31.30;99.90;;;;;;6246564;23;20019;-93
2023/06/09 05:42:49;;;;;;;22.73;21.08;;;31.60;99.90;;;;;;6271339;22;20011;-93
2023/06/09 05:45:17;;;;;;;22.08;20.67;;;31.30;99.90;;;;;;6271397;22;20040;-93
2023/06/09 05:47:43;;;;;;;22.48;20.80;;;31.50;99.90;;;;;;6245768;23;20004;-92
2023/06/09 05:50:10;;;;;;;23.10;21.20;;;30.80;99.90;;;;;;6271375;22;20432;-92
2023/06/09 05:52:37;;;;;;;22.60;21.20;;;30.70;99.90;;;;;;6271203;22;20074;-92
2023/06/09 05:55:04;;;;;;;22.48;20.83;;;30.50;99.90;;;;;;6274614;22;20012;-94
2023/06/09 05:57:31;;;;;;;22.50;20.80;;;30.60;99.90;;;;;;6271756;22;20012;-93
2023/06/09 05:59:57;;;;;;;23.20;21.70;;;30.70;99.90;;;;;;6271968;22;20016;-93
2023/06/09 06:02:24;;;;;;;23.13;21.60;;;30.60;99.90;;;;;;6271163;22;20043;-92
2023/06/09 06:04:51;;;;;;;23.00;21.52;;;31.50;99.90;;;;;;6221369;23;20008;-94
2023/06/09 06:07:20;;;;;;;24.10;22.60;;;31.60;99.90;;;;;;6271226;22;20028;-94
2023/06/09 06:09:47;;;;;;;25.33;23.42;;;31.90;99.90;;;;;;6272091;22;20050;-94
2023/06/09 06:12:13;;;;;;;24.83;23.23;;;32.30;99.90;;;;;;6271631;22;20004;-94
2023/06/09 06:14:40;;;;;;;24.85;23.08;;;32.90;99.90;;;;;;6271320;22;20012;-92
2023/06/09 06:17:06;;;;;;;24.30;22.65;;;33.30;99.90;;;;;;6272739;22;20005;-94
2023/06/09 06:24:56;;;;;;;25.00;23.20;;;32.50;99.90;;;;;;6215753;22;20880;-91
2023/06/09 06:27:23;;;;;;;25.38;23.30;;;32.30;99.90;;;;;;6284177;22;20011;-93
2023/06/09 06:29:52;;;;;;;24.95;23.45;;;32.20;99.90;;;;;;6266030;22;20003;-92
2023/06/09 06:32:22;;;;;;;24.55;23.15;;;31.70;99.90;;;;;;6257655;22;20015;-92
2023/06/09 06:34:51;;;;;;;24.63;23.17;;;31.50;99.90;;;;;;6258118;22;20454;-94
2023/06/09 06:37:28;;;;;;;23.90;22.50;;;31.30;99.90;;;;;;6283569;22;20015;-92
2023/06/09 06:40:20;;;;;;;25.52;23.58;;;31.20;99.90;;;;;;6258426;22;20408;-93
2023/06/09 06:42:58;;;;;;;25.25;23.35;;;31.70;99.90;;;;;;6260095;22;20011;-93
2023/06/09 06:45:41;;;;;;;25.05;23.45;;;32.10;99.90;;;;;;6262799;22;20026;-91
2023/06/09 06:48:19;;;;;;;25.88;24.02;;;32.70;99.90;;;;;;6258076;22;20038;-91
2023/06/09 06:50:46;;;;;;;25.33;23.63;;;32.30;99.90;;;;;;6257474;22;20467;-92
2023/06/09 06:53:24;;;;;;;25.50;23.75;;;32.00;99.90;;;;;;6257866;22;20341;-92
2023/06/09 06:55:53;;;;;;;24.77;23.15;;;31.50;99.90;;;;;;6283280;22;20019;-92
2023/06/09 06:58:32;;;;;;;24.63;23.23;;;31.40;99.90;;;;;;6283649;22;20007;-92
2023/06/09 07:01:04;;;;;;;24.67;23.08;;;31.60;99.90;;;;;;6261857;22;20245;-93
2023/06/09 07:04:09;;;;;;;24.65;22.98;;;32.30;99.90;;;;;;6258287;22;20003;-93
2023/06/09 07:06:51;;;;;;;25.20;23.42;;;33.10;99.90;;;;;;6248704;22;20344;-93
2023/06/09 07:34:19;;;;;;;26.50;24.80;;;32.70;99.90;;;;;;6217878;22;20080;-92
2023/06/09 07:36:50;;;;;;;25.85;23.92;;;33.10;99.90;;;;;;6260376;22;20057;-92
2023/06/09 07:39:17;;;;;;;26.38;24.67;;;32.90;99.90;;;;;;6259528;22;20020;-91
2023/06/09 07:41:43;;;;;;;25.60;23.90;;;32.30;99.90;;;;;;6258253;22;20003;-91
2023/06/09 07:44:10;;;;;;;24.75;23.25;;;32.30;99.90;;;;;;6259621;22;20038;-92
2023/06/09 07:46:36;;;;;;;25.20;23.45;;;32.50;99.90;;;;;;6257405;22;19999;-92
2023/06/09 07:49:02;;;;;;;24.60;23.20;;;32.60;99.90;;;;;;6257529;22;20011;-92
2023/06/09 07:51:29;;;;;;;25.48;23.85;;;32.50;99.90;;;;;;6258140;22;19999;-94
2023/06/09 07:53:56;;;;;;;24.55;23.10;;;32.40;99.90;;;;;;6258751;22;20421;-93
2023/06/09 07:56:22;;;;;;;25.33;23.55;;;32.40;99.90;;;;;;6258371;22;20025;-96
2023/06/09 07:58:49;;;;;;;24.83;23.17;;;32.10;99.90;;;;;;6257946;22;20015;-90
2023/06/09 08:01:16;;;;;;;24.13;22.67;;;31.90;99.90;;;;;;6258902;22;20057;-94
2023/06/09 08:03:42;;;;;;;24.65;22.88;;;31.80;99.90;;;;;;6257797;22;20018;-91
2023/06/09 08:06:09;;;;;;;24.38;22.88;;;32.10;99.90;;;;;;6257633;22;19999;-94
2023/06/09 08:08:37;;;;;;;24.15;22.75;;;31.70;99.90;;;;;;6258248;22;20096;-92
2023/06/09 08:11:03;;;;;;;25.23;23.52;;;31.20;99.90;;;;;;6258122;22;20000;-94
2023/06/09 08:13:30;;;;;;;24.50;22.98;;;31.40;99.90;;;;;;6258052;22;20007;-92
2023/06/09 08:16:01;;;;;;;24.20;22.80;;;32.40;99.90;;;;;;6257993;22;20003;-92
2023/06/09 08:18:27;;;;;;;24.75;23.17;;;32.60;99.90;;;;;;6258045;22;20022;-93
2023/06/09 08:20:53;;;;;;;25.15;23.45;;;32.10;99.90;;;;;;6257751;22;20456;-91
2023/06/09 08:23:23;;;;;;;23.55;21.95;;;32.20;99.90;;;;;;6258264;22;20092;-93
2023/06/09 08:25:50;;;;;;;23.70;22.23;;;31.70;99.90;;;;;;6256892;22;20084;-91
2023/06/09 08:28:16;;;;;;;24.05;22.23;;;32.00;99.90;;;;;;6256808;22;20013;-92
2023/06/09 08:30:42;;;;;;;24.70;23.10;;;31.60;99.90;;;;;;6282956;22;20459;-92
2023/06/09 08:33:08;;;;;;;23.80;22.40;;;31.10;99.90;;;;;;6256885;22;20003;-92
2023/06/09 08:35:35;;;;;;;24.42;22.88;;;31.10;99.90;;;;;;6284711;22;20003;-90
2023/06/09 08:38:02;;;;;;;24.20;22.70;;;31.50;99.90;;;;;;6279433;22;20016;-92
2023/06/09 08:40:28;;;;;;;24.05;22.48;;;31.60;99.90;;;;;;6267378;22;20015;-92
2023/06/09 08:42:56;;;;;;;25.27;23.58;;;31.50;99.90;;;;;;6251363;22;20030;-92
2023/06/09 08:45:23;;;;;;;25.23;23.52;;;32.10;99.90;;;;;;6251168;22;20337;-91
2023/06/09 08:47:53;;;;;;;24.58;23.00;;;32.30;99.90;;;;;;6251073;22;20459;-93
2023/06/09 08:50:22;;;;;;;24.27;22.83;;;31.40;99.90;;;;;;6251266;22;20008;-92
2023/06/09 19:24:05;;;;;;;16.85;15.45;;;23.60;99.90;;;;;;6210887;22;20089;-94
2023/06/09 19:59:45;;;;;;;14.20;12.80;;;22.80;99.90;;;;;;6294502;22;20029;-93
2023/06/09 20:02:14;;;;;;;15.55;13.50;;;22.90;99.90;;;;;;6208101;22;20003;-92
2023/06/09 20:04:44;;;;;;;13.90;12.60;;;22.90;99.90;;;;;;6261132;22;20030;-93
2023/06/09 20:07:11;;;;;;;13.75;12.65;;;22.80;99.90;;;;;;6267325;22;19995;-93
2023/06/09 20:09:45;;;;;;;13.20;12.20;;;22.60;99.90;;;;;;6245222;22;20000;-93
2023/06/09 20:12:12;;;;;;;15.35;12.80;;;22.40;99.90;;;;;;6244270;22;20004;-93
2023/06/09 20:14:40;;;;;;;14.45;12.48;;;22.40;99.90;;;;;;6229307;22;20027;-92
2023/06/09 20:17:11;;;;;;;13.15;12.05;;;22.30;99.90;;;;;;6226399;22;20085;-92
2023/06/09 20:28:53;;;;;;;13.43;11.40;;;21.90;99.90;;;;;;6241596;22;20100;-93
2023/06/09 20:31:20;;;;;;;13.13;11.60;;;21.80;99.90;;;;;;6206608;22;20095;-94
2023/06/09 20:36:51;;;;;;;;;;;;;;;;;;;;;
2023/06/09 20:40:41;;;;;;;;;;;;;;;;;;;;;
2023/06/09 21:23:50;;;;;;;15.68;11.23;;;21.50;99.90;;;;;;6154171;22;20474;-91
2023/06/09 21:26:26;;;;;;;11.57;10.38;;;21.40;99.90;;;;;;6260734;22;20448;-93
2023/06/09 21:28:53;;;;;;;14.32;11.00;;;21.40;99.90;;;;;;6262955;22;20014;-92
2023/06/09 21:31:20;;;;;;;12.02;10.82;;;21.30;99.90;;;;;;6251121;22;20011;-92
2023/06/09 21:33:48;;;;;;;15.90;11.48;;;21.10;99.90;;;;;;6251870;22;20011;-92
2023/06/09 21:36:15;;;;;;;14.93;11.23;;;21.00;99.90;;;;;;6252033;22;20026;-92
2023/06/09 21:38:50;;;;;;;13.27;11.23;;;21.00;99.90;;;;;;6242064;22;20020;-92
2023/06/09 21:41:37;;;;;;;11.80;10.60;;;20.90;99.90;;;;;;6256804;22;20012;-92
2023/06/09 21:44:04;;;;;;;13.30;10.77;;;20.90;99.90;;;;;;6252260;22;20011;-91
2023/06/09 21:46:34;;;;;;;11.90;10.75;;;20.90;99.90;;;;;;6252182;22;20078;-92
2023/06/09 21:49:01;;;;;;;12.85;11.15;;;20.80;99.90;;;;;;6279268;22;20011;-94
2023/06/09 21:51:27;;;;;;;11.85;10.75;;;20.80;99.90;;;;;;6228714;22;19999;-92
2023/06/09 21:53:58;;;;;;;13.48;10.38;;;20.80;99.90;;;;;;6228644;22;20014;-93
2023/06/09 21:56:27;;;;;;;15.18;10.80;;;20.70;99.90;;;;;;6228580;22;20004;-92
2023/06/09 21:59:10;;;;;;;12.20;10.38;;;20.80;99.90;;;;;;6253370;22;20019;-93
2023/06/09 22:01:36;;;;;;;11.80;9.98;;;20.80;99.90;;;;;;6253647;22;20041;-93
2023/06/09 22:07:44;;;;;;;16.13;10.40;;;20.80;99.90;;;;;;6135100;23;20013;-93
2023/06/09 22:10:48;;;;;;;15.15;9.98;;;20.70;99.90;;;;;;6133977;23;20013;-93
2023/06/09 22:13:47;;;;;;;15.07;9.85;;;20.60;99.90;;;;;;6154705;23;20088;-93
2023/06/09 22:16:13;;;;;;;13.18;10.20;;;20.60;99.90;;;;;;6049621;23;20011;-92
2023/06/09 22:19:26;;;;;;;14.45;10.23;;;20.70;99.90;;;;;;6047895;23;20497;-91
2023/06/09 22:43:24;;;;;;;13.52;10.13;;;20.40;99.90;;;;;;6270062;22;19970;-92
2023/06/09 22:45:54;;;;;;;16.75;11.02;;;20.50;99.90;;;;;;6079149;23;20005;-91
2023/06/09 22:48:37;;;;;;;11.57;10.35;;;20.40;99.90;;;;;;6102739;23;20081;-91
2023/06/09 22:51:10;;;;;;;12.32;9.52;;;20.30;99.90;;;;;;6120042;22;20029;-92
2023/06/09 22:53:37;;;;;;;13.02;9.80;;;20.30;99.90;;;;;;6229893;22;20016;-93
2023/06/09 22:56:06;;;;;;;11.52;10.15;;;20.20;99.90;;;;;;6228598;22;20008;-93
2023/06/09 22:58:33;;;;;;;11.23;10.13;;;20.20;99.90;;;;;;6252136;22;20012;-92
2023/06/09 23:00:59;;;;;;;15.18;10.10;;;20.10;99.90;;;;;;6228923;22;20444;-91
2023/06/09 23:03:26;;;;;;;11.77;10.57;;;20.10;99.90;;;;;;6252675;22;20008;-91
2023/06/09 23:05:54;;;;;;;11.30;10.02;;;20.00;99.90;;;;;;6227859;22;20004;-91
2023/06/09 23:08:23;;;;;;;14.90;10.93;;;20.00;99.90;;;;;;6216714;23;20235;-94
2023/06/09 23:10:50;;;;;;;11.85;10.05;;;20.00;99.90;;;;;;6191814;23;20009;-91
2023/06/09 23:13:16;;;;;;;15.80;10.30;;;20.00;99.90;;;;;;6191365;23;20054;-91
2023/06/09 23:15:43;;;;;;;16.73;11.02;;;20.00;99.90;;;;;;6166309;23;20454;-92
2023/06/09 23:18:10;;;;;;;14.43;11.07;;;20.00;99.90;;;;;;6191096;23;20427;-92
2023/06/09 23:20:38;;;;;;;14.82;10.57;;;20.00;99.90;;;;;;6191448;23;20446;-93
2023/06/09 23:23:06;;;;;;;16.10;10.63;;;20.00;99.90;;;;;;6191481;23;20008;-93
2023/06/09 23:25:33;;;;;;;13.90;10.75;;;19.90;99.90;;;;;;6191540;23;20012;-92
2023/06/09 23:27:59;;;;;;;11.73;10.40;;;19.90;99.90;;;;;;6191093;23;20005;-91
2023/06/09 23:30:28;;;;;;;13.63;11.02;;;19.90;99.90;;;;;;6190976;23;20006;-90
2023/06/09 23:32:55;;;;;;;11.65;10.30;;;19.90;99.90;;;;;;6190634;23;20366;-93
2023/06/09 23:35:23;;;;;;;15.35;10.27;;;19.90;99.90;;;;;;6191075;23;20009;-92
2023/06/09 23:37:52;;;;;;;14.23;10.57;;;19.80;99.90;;;;;;6191062;23;20008;-92
2023/06/09 23:40:19;;;;;;;15.93;10.55;;;19.80;99.90;;;;;;6190696;23;20021;-91
2023/06/09 23:42:45;;;;;;;13.50;10.75;;;19.80;99.90;;;;;;6191393;23;20082;-93
2023/06/09 23:45:12;;;;;;;13.20;10.68;;;19.70;99.90;;;;;;6207759;22;20008;-96
2023/06/09 23:47:44;;;;;;;14.45;10.73;;;19.80;99.90;;;;;;6252363;22;20078;-91
2023/06/09 23:50:20;;;;;;;13.13;10.02;;;19.70;99.90;;;;;;6227876;22;20008;-92
2023/06/09 23:52:58;;;;;;;18.55;9.98;;;19.70;99.90;;;;;;6221758;23;20016;-93
2023/06/09 23:55:38;;;;;;;13.30;10.90;;;19.70;99.90;;;;;;6250082;23;20077;-92
2023/06/09 23:58:19;;;;;;;14.55;10.25;;;19.80;99.90;;;;;;6248008;23;20389;-92
